hero-logo

Top 15 Knowers of MA Mastercard Inc-Class A - 2017-07-21

Rank Fund Result (K)
1 Menora Mivtachim Holdings Ltd $2,777
2 Fiera Capital Corp $2,307
3 Glg Partners Lp $2,172
4 Castle Hook Partners Lp $1,983
5 Riverpark Capital Management Llc $1,567
6 Hgk Asset Management Inc $1,338
7 Clal Insurance Enterprises Holdings Ltd $1,190
8 Raymond James Associates $1,036
9 Moore Capital Management Lp $922
10 Echo Street Capital Management Llc $900
11 Graticule Asia Macro Advisors Llc $820
12 Northwestern Mutual Investment Management Company Llc $748
13 Vgi Partners Pty Ltd $567
14 Johnson Investment Counsel Inc $473
15 Lakewood Capital Management Lp $461
Price Chart and News From Google Finance for MA Mastercard Inc-Class A
Owner Date Shares Change Price Change Result (K)
Acrospire Investment Management Llc 2017-03-31 -1,000 $9.22 $-9
Adams Diversified Equity Fund Inc 2017-03-31 -43,000 $9.22 $-396
Advantage Investment Management Llc 2017-03-31 14 $9.22 $0
Ahl Partners Llp 2017-03-31 45,101 $9.22 $415
Alkeon Capital Management Llc 2017-03-31 -11,000 $9.22 $-101
Allen Operations Llc 2017-03-31 0 $9.22 $0
Allsquare Wealth Management Llc 2017-03-31 -433 $9.22 $-3
Alpine Partners Vi Llc 2017-03-31 5,207 $9.22 $48
Alta Park Capital Lp 2017-03-31 0 $9.22 $0
Altarock Partners Llc 2017-03-31 -5,400 $9.22 $-49
Amalgamated Bank 2017-03-31 -31,415 $9.22 $-289
American Money Management Llc 2017-03-31 789 $9.22 $7
Amf Pensionsforsakring Ab 2017-03-31 -11,395 $9.22 $-105
Ancora Advisors Llc 2017-03-31 1,299 $9.22 $11
Aperio Group Llc 2017-03-31 15,264 $9.22 $140
Archford Capital Strategies Llc 2017-03-31 1,209 $9.22 $11
Archon Partners Llc 2017-03-31 0 $9.22 $0
Argentiere Capital Ag 2017-03-31 -10,602 $9.22 $-97
Arrow Financial Corp 2017-03-31 0 $9.22 $0
Arrowpoint Asset Management Llc 2017-03-31 -395 $9.22 $-3
A R T Advisors Llc 2017-03-31 -13,600 $9.22 $-125
Assetmark Inc 2017-03-31 -150 $9.22 $-1
Atlanta Capital Management Co L L C 2017-03-31 -49,574 $9.22 $-457
Atlantic Trust Llc 2017-03-31 2,314 $9.22 $21
Aua Capital Management Llc 2017-03-31 -3,450 $9.22 $-31
Auxier Asset Management 2017-03-31 -7,100 $9.22 $-65
Avalon Advisors Llc 2017-03-31 -1,587 $9.22 $-14
Avenir Corp 2017-03-31 33,673 $9.22 $310
Bahl Gaynor Inc 2017-03-31 2,320 $9.22 $21
Balentine Llc 2017-03-31 -1,650 $9.22 $-15
Barrington Strategic Wealth Management Group Llc 2017-03-31 -425 $9.22 $-3
Beacon Financial Group 2017-06-30 -61 $8.98 $0
Beacon Trust Co 2017-03-31 876 $9.22 $8
Beck Capital Management Llc 2017-03-31 -445 $9.22 $-4
Bell Bank 2017-03-31 -215 $9.22 $-1
Bishop Rock Capital L P 2017-03-31 6,973 $9.22 $64
Blair William Co Il 2017-03-31 2,607 $9.22 $24
Blue Ridge Capital L L C 2017-03-31 2,800 $9.22 $25
Bluespruce Investments Lp 2017-03-31 0 $9.22 $0
Bokf Na 2017-03-31 -2,480 $9.22 $-22
Boston Private Wealth Llc 2017-03-31 -5,377 $9.22 $-49
Bragg Financial Advisors Inc 2017-03-31 1,215 $9.22 $11
Bridgeworth Llc 2017-03-31 114 $9.22 $1
Brinker Capital Inc 2017-03-31 5,066 $9.22 $46
Broderick Brian C 2017-03-31 -261 $9.22 $-2
Brown Brothers Harriman Co 2017-03-31 36,341 $9.22 $335
B S Pension Fund Trustee Ltd Acting For The British Steel P 2017-03-31 -2,445 $9.22 $-22
B T Capital Management Dba Alpha Capital Management 2017-03-31 47 $9.22 $0
Cahill Financial Advisors Inc 2017-03-31 2 $9.22 $0
Caldera Capital Llc 2017-03-31 -20,394 $9.22 $-188
California State Teachers Retirement System 2017-03-31 -87,900 $9.22 $-810
Canandaigua National Bank Trust Co 2017-03-31 107 $9.22 $0
Capital Guardian Trust Co 2017-03-31 -1,000 $9.22 $-9
Capstone Investment Advisors Llc 2017-03-31 -37,646 $9.22 $-347
Castle Hook Partners Lp 2017-03-31 215,096 $9.22 $1,983
Catamount Wealth Management 2017-03-31 0 $9.22 $0
Cetera Advisor Networks Llc 2017-03-31 536 $9.22 $4
Cetera Advisors Llc 2017-03-31 267 $9.22 $2
Cetera Investment Advisers 2017-03-31 1,181 $9.22 $10
Chilton Capital Management Llc 2017-03-31 -321 $9.22 $-2
Chilton Investment Co Llc 2017-03-31 -8,751 $9.22 $-80
Cider Mill Investments Lp 2017-03-31 24,800 $9.22 $228
Clal Insurance Enterprises Holdings Ltd 2017-03-31 129,100 $9.22 $1,190
Clear Perspective Advisors Llc 2017-03-31 -1,012 $9.22 $-9
Colony Group Llc 2017-03-31 4,774 $9.22 $44
Compagnie Lombard Odier Scma 2017-03-31 -2,890 $9.22 $-26
Confluence Investment Management Llc 2017-03-31 43 $9.22 $0
Congress Asset Management Co Ma 2017-03-31 -426 $9.22 $-3
Cornerstone Capital Management Holdings Llc 2017-03-31 -4,694 $9.22 $-43
Cornerstone Wealth Management Llc 2017-03-31 153 $9.22 $1
Covington Capital Management 2017-03-31 -55 $9.22 $0
Criterion Capital Management Llc 2017-03-31 -8,265 $9.22 $-76
Crow Point Partners Llc 2017-03-31 2,012 $9.22 $18
Cypress Wealth Advisors Llc 2017-03-31 -118 $9.22 $-1
D A Davidson Co 2017-03-31 -19,508 $9.22 $-179
Dana Investment Advisors Inc 2017-03-31 0 $9.22 $0
Davidson Investment Advisors 2017-03-31 -297 $9.22 $-2
Deccan Value Investors L P 2017-03-31 -6,500 $9.22 $-59
Delaney Dennis R 2017-03-31 -295 $9.22 $-2
Dempze Nancy E 2017-03-31 436 $9.22 $4
Df Dent Co Inc 2017-03-31 -33,115 $9.22 $-305
Earnest Partners Llc 2017-03-31 -477 $9.22 $-4
Echo Street Capital Management Llc 2017-03-31 97,676 $9.22 $900
Edgestream Partners L P 2017-03-31 15,606 $9.22 $143
Edmond De Rothschild Holding S A 2017-03-31 3,371 $9.22 $31
Efg Asset Management Americas Corp 2017-03-31 -5,066 $9.22 $-46
Elefante Mark B 2017-03-31 735 $9.22 $6
Ellington Management Group Llc 2017-03-31 -9,100 $9.22 $-83
Ems Capital Lp 2017-03-31 0 $9.22 $0
Envestnet Asset Management Inc 2017-03-31 21,577 $9.22 $198
Ep Wealth Advisors Inc 2017-03-31 -4 $9.22 $0
Eulav Asset Management 2017-03-31 0 $9.22 $0
Fairfield Bush Co 2017-03-31 -1,000 $9.22 $-9
Farley Capital L P 2017-03-31 -5,005 $9.22 $-46
Farmers National Bank 2017-03-31 -430 $9.22 $-3
Fayerweather Charles 2017-03-31 160 $9.22 $1
Fdx Advisors Inc 2017-03-31 306 $9.22 $2
Fiera Capital Corp 2017-03-31 250,286 $9.22 $2,307
First Foundation Advisors 2017-03-31 2,882 $9.22 $26
First Long Island Investors Llc 2017-03-31 0 $9.22 $0
First Republic Investment Management Inc 2017-03-31 9,968 $9.22 $91
Flagship Harbor Advisors Llc 2017-03-31 -374 $9.22 $-3
Flow Traders U S Llc 2017-03-31 1,804 $9.22 $16
Folger Hill Asset Management Lp 2017-03-31 -6,238 $9.22 $-57
Forbes J M Co Llp 2017-03-31 0 $9.22 $0
Force Capital Management Llc 2017-03-31 -11,833 $9.22 $-109
Fortaleza Asset Management Inc 2017-03-31 -3,000 $9.22 $-27
Gardiner Nancy B 2017-03-31 575 $9.22 $5
Gardner Lewis Asset Management L P 2017-03-31 -3,720 $9.22 $-34
Generation Investment Management Llp 2017-03-31 -24,448 $9.22 $-225
Genesee Valley Trust Co 2017-03-31 18 $9.22 $0
Girard Securities Inc 2017-03-31 -44 $9.22 $0
Glassman Wealth Services 2017-03-31 6 $9.22 $0
Glen Harbor Capital Management Llc 2017-03-31 -4,246 $9.22 $-39
Glg Llc 2017-03-31 -132 $9.22 $-1
Glg Partners Lp 2017-03-31 235,640 $9.22 $2,172
Gotham Asset Management Llc 2017-03-31 -57,224 $9.22 $-527
Gqg Partners Llc 2017-03-31 40,981 $9.22 $377
Graticule Asia Macro Advisors Llc 2017-03-31 89,000 $9.22 $820
Gratry Co Llc 2017-03-31 -251 $9.22 $-2
Green Square Capital Llc 2017-03-31 -709 $9.22 $-6
Greystone Managed Investments Inc 2017-03-31 -9,076 $9.22 $-83
Group One Trading L P 2017-03-31 -96 $9.22 $0
Gsa Capital Partners Llp 2017-03-31 -45,106 $9.22 $-415
Guardian Capital Advisors Lp 2017-03-31 128 $9.22 $1
Guardian Capital Lp 2017-03-31 15,819 $9.22 $145
Guggenheim Capital Llc 2017-03-31 14,578 $9.22 $134
Hanson Doremus Investment Management 2017-03-31 80 $9.22 $0
Hbk Sorce Advisory Llc 2017-03-31 22 $9.22 $0
Hcr Wealth Advisors 2017-03-31 125 $9.22 $1
Hgk Asset Management Inc 2017-03-31 145,140 $9.22 $1,338
Holt Capital Advisors L L C Dba Holt Capital Partners L P 2017-03-31 100 $9.22 $0
Horizon Kinetics Llc 2017-03-31 -4,402 $9.22 $-40
Hutchin Hill Capital Lp 2017-03-31 -100 $9.22 $0
Ibex Wealth Advisors 2017-03-31 482 $9.22 $4
Ifp Advisors Inc 2017-03-31 -7,902 $9.22 $-72
Iht Wealth Management Llc 2017-03-31 137 $9.22 $1
Intact Investment Management Inc 2017-03-31 -1,000 $9.22 $-9
Intellectus Partners Llc 2017-03-31 24 $9.22 $0
Interocean Capital Llc 2017-03-31 28,948 $9.22 $266
Interval Partners Lp 2017-03-31 -43,565 $9.22 $-401
Invictus Rg 2017-03-31 -1,391 $9.22 $-12
Ironsides Asset Advisors Llc 2017-03-31 -2,095 $9.22 $-19
Ironwood Investment Counsel Llc 2017-03-31 435 $9.22 $4
Israel Discount Bank Of New York 2017-03-31 -1,070 $9.22 $-9
Jacobs Levy Equity Management Inc 2017-03-31 -65,126 $9.22 $-600
Jaffetilchin Investment Partners Llc 2017-03-31 -249 $9.22 $-2
Jane Street Group Llc 2017-03-31 26,632 $9.22 $245
Jarislowsky Fraser Ltd 2017-03-31 37,123 $9.22 $342
Johnson Investment Counsel Inc 2017-03-31 51,322 $9.22 $473
Kdi Capital Partners Llc 2017-03-31 -49,660 $9.22 $-457
Keel Point Llc 2017-03-31 -11 $9.22 $0
Kentucky Retirement Systems 2017-03-31 -8,666 $9.22 $-79
Kentucky Retirement Systems Insurance Trust Fund 2017-03-31 -5,341 $9.22 $-49
Kg Funds Management Llc 2017-03-31 37,088 $9.22 $341
Kidder Stephen W 2017-03-31 -315 $9.22 $-2
Kimelman Baird Llc 2017-03-31 -441 $9.22 $-4
Krilogy Financial Llc 2017-03-31 0 $9.22 $0
Ladenburg Thalmann Financial Services Inc 2017-03-31 556 $9.22 $5
Lakewood Capital Management Lp 2017-03-31 50,000 $9.22 $461
Lcnb Corp 2017-03-31 355 $9.22 $3
Lee Financial Corp 2017-03-31 0 $9.22 $0
Lenox Wealth Management Inc 2017-03-31 227 $9.22 $2
Level Four Advisory Services Llc 2017-03-31 2,098 $9.22 $19
Logan Capital Management Inc 2017-03-31 -7,304 $9.22 $-67
Loomis Sayles Co L P 2017-03-31 0 $9.22 $0
Lowe Brockenbrough Co Inc 2017-03-31 590 $9.22 $5
Magellan Asset Management Ltd 2017-03-31 -52,760 $9.22 $-486
Maple Capital Management Inc 2017-03-31 5,780 $9.22 $53
Marietta Investment Partners Llc 2017-03-31 -630 $9.22 $-5
Mariner Wealth Advisors Llc 2017-03-31 -1,876 $9.22 $-17
Marsico Capital Management Llc 2017-03-31 -17,145 $9.22 $-158
Mason Street Advisors Llc 2017-03-31 -10 $9.22 $0
Matthew 25 Management Corp 2017-03-31 -7,500 $9.22 $-69
Mckinley Capital Management Llc Delaware 2017-03-31 44,801 $9.22 $413
Meadow Creek Investment Management Llc 2017-03-31 -6,562 $9.22 $-60
Menora Mivtachim Holdings Ltd 2017-03-31 301,230 $9.22 $2,777
Mogy Joel R Investment Counsel Inc 2017-03-31 675 $9.22 $6
Moloney Securities Asset Management Llc 2017-03-31 -66 $9.22 $0
Moneta Group Investment Advisors Llc 2017-03-31 -57 $9.22 $0
Monroe Bank Trust Mi 2017-03-31 -104 $9.22 $0
Montecito Bank Trust 2017-03-31 279 $9.22 $2
Moore Capital Management Lp 2017-03-31 100,000 $9.22 $922
Mv Capital Management Inc 2017-03-31 0 $9.22 $0
National Asset Management Inc 2017-03-31 125 $9.22 $1
Neuburgh Advisers Llc 2017-03-31 -3,088 $9.22 $-28
New York Life Trust Co 2017-03-31 -956 $9.22 $-8
Next Century Growth Investors Llc 2017-03-31 -1,470 $9.22 $-13
Night Owl Capital Management Llc 2017-03-31 -9,511 $9.22 $-87
Northwestern Mutual Investment Management Company Llc 2017-03-31 81,150 $9.22 $748
Northwestern Mutual Wealth Management Co 2017-03-31 -952 $9.22 $-8
Notis-Mcconarty Edward 2017-03-31 340 $9.22 $3
Oberweis Asset Management Inc 2017-03-31 -79 $9.22 $0
One Capital Management Llc 2017-03-31 -70 $9.22 $0
Optimum Investment Advisors 2017-03-31 -745 $9.22 $-6
Page Arthur B 2017-03-31 10 $9.22 $0
Paloma Partners Management Co 2017-03-31 -62,943 $9.22 $-580
Perigon Wealth Management Llc 2017-03-31 741 $9.22 $6
Picton Mahoney Asset Management 2017-03-31 -5,900 $9.22 $-54
Piedmont Investment Advisors Llc 2017-03-31 1,744 $9.22 $16
Pinkerton Retirement Specialists Llc 2017-03-31 -881 $9.22 $-8
Pittenger Anderson Inc 2017-03-31 -296 $9.22 $-2
Plancorp Llc 2017-03-31 0 $9.22 $0
Polar Capital Llp 2017-03-31 -43,244 $9.22 $-398
Proficio Capital Partners Llc 2017-03-31 464 $9.22 $4
Public Employees Retirement System Of Ohio 2017-03-31 -12,625 $9.22 $-116
Puzo Michael J 2017-03-31 -234 $9.22 $-2
Quest Investment Management Inc Or 2017-03-31 -18,735 $9.22 $-172
Rainier Investment Management Llc 2017-03-31 -11,950 $9.22 $-110
Raymond James Associates 2017-03-31 112,444 $9.22 $1,036
Rb Capital Management Llc 2017-03-31 -79 $9.22 $0
Rbf Capital Llc 2017-03-31 0 $9.22 $0
Reynders Mcveigh Capital Management Llc 2017-03-31 -12,455 $9.22 $-114
Richard Bernstein Advisors Llc 2017-03-31 0 $9.22 $0
Riverhead Capital Management Llc 2017-03-31 3,264 $9.22 $30
Riverpark Advisors Llc 2017-03-31 -4,665 $9.22 $-43
Riverpark Capital Management Llc 2017-03-31 170,021 $9.22 $1,567
River Wealth Advisors Llc 2017-03-31 2,340 $9.22 $21
Rothschild Asset Management Inc 2017-03-31 4,171 $9.22 $38
Round Hill Asset Management 2017-03-31 0 $9.22 $0
Roundview Capital Llc 2017-03-31 565 $9.22 $5
Samlyn Capital Llc 2017-03-31 -113,799 $9.22 $-1,049
Sather Financial Group Inc 2017-03-31 0 $9.22 $0
Saturna Capital Corp 2017-03-31 0 $9.22 $0
Saybrook Capital Nc 2017-03-31 1,072 $9.22 $9
Scholtz Company Llc 2017-03-31 1,855 $9.22 $17
Schonfeld Strategic Advisors Llc 2017-03-31 -25,793 $9.22 $-237
Schwerin Boyle Capital Management Inc 2017-03-31 -1,200 $9.22 $-11
Sciencast Management Lp 2017-03-31 -6,906 $9.22 $-63
Scotia Capital Inc 2017-03-31 3,562 $9.22 $32
Seawolf Capital Llc 2017-03-31 -600 $9.22 $-5
Segall Bryant Hamill Llc 2017-03-31 -124 $9.22 $-1
Sentinel Asset Management Inc 2017-03-31 -1,100 $9.22 $-10
Sequoia Financial Advisors Llc 2017-03-31 54 $9.22 $0
Seven Eight Capital Lp 2017-03-31 -24,200 $9.22 $-223
Shellback Capital Lp 2017-03-31 -202,400 $9.22 $-1,866
Signaturefd Llc 2017-03-31 148 $9.22 $1
Silvercrest Asset Management Group Llc 2017-03-31 -437 $9.22 $-4
Somerville Kurt F 2017-03-31 -3,908 $9.22 $-36
Sowell Financial Services Llc 2017-03-31 -682 $9.22 $-6
Squarepoint Ops Llc 2017-03-31 -25,608 $9.22 $-236
Srs Capital Advisors Inc 2017-03-31 499 $9.22 $4
Steinberg Global Asset Management 2017-03-31 -2,030 $9.22 $-18
Stifel Financial Corp 2017-03-31 -2,448 $9.22 $-22
Sva Plumb Wealth Management Llc 2017-03-31 1,162 $9.22 $10
Thomas J Herzfeld Advisors Inc 2017-03-31 106 $9.22 $0
Three Corner Global Investors Lp 2017-03-31 21,700 $9.22 $200
Tiger Global Management Llc 2017-03-31 0 $9.22 $0
Tiverton Asset Management Llc 2017-03-31 -25,928 $9.22 $-239
Tributary Capital Management Llc 2017-03-31 -600 $9.22 $-5
Truenorth Inc 2017-03-31 -4,436 $9.22 $-40
Two Sigma Securities Llc 2017-03-31 -4,889 $9.22 $-45
United Capital Financial Advisers Llc 2017-03-31 9,543 $9.22 $87
Usa Financial Portformulas Corp 2017-03-31 2,547 $9.22 $23
Veritable L P 2017-03-31 -3,277 $9.22 $-30
Verition Fund Management Llc 2017-03-31 -6,358 $9.22 $-58
Vestor Capital Llc 2017-03-31 -315 $9.22 $-2
Vgi Partners Pty Ltd 2017-03-31 61,539 $9.22 $567
Voloridge Investment Management Llc 2017-03-31 -40,918 $9.22 $-377
Walleye Trading Llc 2017-03-31 11,656 $9.22 $107
Wasatch Advisors Inc 2017-03-31 2,000 $9.22 $18
Webster Bank N A 2017-03-31 -141 $9.22 $-1
Weitz Investment Management Inc 2017-03-31 -45,794 $9.22 $-422
Yorkbridge Wealth Partners Llc 2017-03-31 580 $9.22 $5